Time;durP1;ratioP1;P1;durP2;ratioP2;P2;SDS_P1;SDS_P2;PMS_P1;PMS_P2;Temp;Humidity;BMP_temperature;BMP_pressure;BME280_temperature;BME280_humidity;BME280_pressure;Samples;Min_cycle;Max_cycle;Signal;HPM_P1;HPM_P2
2021/12/06 00:01:39;;;;;;;14.93;8.95;;;;;;;6.04;72.44;96583.25;10296246;28;20495;-59
2021/12/06 00:06:40;;;;;;;15.60;9.73;;;;;;;5.99;72.98;96578.13;10297734;28;20109;-59
2021/12/06 00:11:39;;;;;;;15.52;9.07;;;;;;;5.93;73.00;96578.13;10296873;28;20072;-59
2021/12/06 00:16:38;;;;;;;;;;;;;;;6.00;72.80;96591.84;10298989;28;20570;-59
2021/12/06 00:21:37;;;;;;;15.23;8.98;;;;;;;6.00;73.33;96602.16;10298760;28;19917;-59
2021/12/06 00:26:36;;;;;;;19.75;9.82;;;;;;;6.04;73.08;96603.88;10298447;28;20021;-59
2021/12/06 00:31:36;;;;;;;16.15;10.15;;;;;;;5.75;72.32;96554.13;10298324;28;20065;-59
2021/12/06 00:36:40;;;;;;;15.55;9.80;;;;;;;5.96;72.92;96597.00;10296946;28;20070;-59
2021/12/06 00:41:40;;;;;;;15.85;8.65;;;;;;;6.08;73.00;96616.72;10296980;28;20065;-59
2021/12/06 00:46:39;;;;;;;15.82;9.05;;;;;;;5.72;72.56;96561.00;10294157;28;20053;-59
2021/12/06 00:51:40;;;;;;;15.35;8.70;;;;;;;6.17;72.96;96647.63;10297214;28;20188;-59
2021/12/06 00:56:39;;;;;;;16.50;9.55;;;;;;;6.15;72.98;96662.22;10297105;28;20076;-59
2021/12/06 01:01:38;;;;;;;16.30;8.68;;;;;;;5.89;72.79;96600.44;10298191;28;20084;-59
2021/12/06 01:06:37;;;;;;;14.27;8.93;;;;;;;6.26;73.06;96651.03;10297594;28;20073;-59
2021/12/06 01:11:36;;;;;;;13.82;8.38;;;;;;;6.27;72.53;96637.31;10295624;28;20038;-59
2021/12/06 01:16:35;;;;;;;15.93;8.38;;;;;;;6.31;72.24;96624.41;10296521;28;20495;-59
2021/12/06 01:22:02;;;;;;;15.45;8.05;;;;;;;6.32;72.17;96608.09;10296382;28;20432;-59
2021/12/06 01:27:25;;;;;;;12.65;7.72;;;;;;;6.33;72.46;96589.19;10293557;28;20065;-59
2021/12/06 01:42:46;;;;;;;14.32;8.77;;;;;;;6.40;71.93;96608.94;10296559;28;20061;-59
2021/12/06 01:47:46;;;;;;;14.95;8.25;;;;;;;6.42;71.66;96595.19;10296269;28;20070;-59
2021/12/06 01:52:51;;;;;;;14.18;8.23;;;;;;;6.14;71.47;96544.63;10295823;28;20084;-59
2021/12/06 01:57:53;;;;;;;14.90;8.98;;;;;;;6.52;71.17;96565.94;10295875;28;20066;-59
2021/12/06 02:02:52;;;;;;;13.82;7.88;;;;;;;6.62;70.90;96572.75;10295691;28;20069;-59
2021/12/06 02:07:52;;;;;;;13.25;8.15;;;;;;;6.49;71.21;96524.69;10293930;28;20053;-59
2021/12/06 02:12:53;;;;;;;13.63;8.07;;;;;;;6.69;70.46;96548.66;10294691;28;20061;-59
2021/12/06 02:18:02;;;;;;;14.25;8.88;;;;;;;6.14;70.42;96459.63;10294788;28;20064;-59
2021/12/06 02:23:02;;;;;;;14.05;8.65;;;;;;;6.69;70.24;96548.66;10252766;28;20085;-59
2021/12/06 02:28:01;;;;;;;15.18;8.35;;;;;;;6.64;70.66;96563.31;10254417;28;20070;-59
2021/12/06 02:33:00;;;;;;;13.27;8.38;;;;;;;6.11;70.61;96462.19;10254551;28;20022;-59
2021/12/06 02:38:02;;;;;;;12.18;7.80;;;;;;;6.73;70.18;96552.09;10254130;28;20077;-59
2021/12/06 02:43:06;;;;;;;12.13;7.68;;;;;;;6.69;70.09;96548.66;10254221;28;20064;-59
2021/12/06 02:48:08;;;;;;;12.15;7.28;;;;;;;6.80;70.50;96567.53;10253607;28;20065;-59
2021/12/06 02:53:07;;;;;;;14.05;7.88;;;;;;;6.86;69.30;96564.03;10275873;28;20077;-59
2021/12/06 02:58:18;;;;;;;9.43;6.47;;;;;;;6.62;69.25;96516.06;10294241;28;20065;-59
2021/12/06 03:03:18;;;;;;;13.13;7.53;;;;;;;6.86;69.08;96550.31;10293532;28;20483;-59
2021/12/06 03:08:46;;;;;;;12.10;7.57;;;;;;;6.86;69.13;96563.19;10293942;28;20076;-59
2021/12/06 03:13:45;;;;;;;14.95;7.53;;;;;;;6.71;69.53;96535.78;10293378;28;20057;-59
2021/12/06 03:18:46;;;;;;;12.80;6.97;;;;;;;6.62;69.54;96523.78;10293639;28;20058;-59
2021/12/06 03:23:47;;;;;;;13.57;7.68;;;;;;;6.74;69.18;96538.34;10293613;28;20534;-59
2021/12/06 03:28:46;;;;;;;13.00;7.55;;;;;;;6.77;69.99;96536.59;10293200;28;20068;-59
2021/12/06 03:33:46;;;;;;;;;;;;;;;6.87;69.19;96540.00;10291632;28;20493;-59
2021/12/06 03:38:46;;;;;;;11.63;6.65;;;;;;;6.97;68.71;96530.47;10293255;28;20405;-59
2021/12/06 03:43:46;;;;;;;12.27;6.78;;;;;;;7.03;69.18;96522.69;10292612;28;21502;-59
2021/12/06 03:48:45;;;;;;;12.57;6.60;;;;;;;7.11;68.58;96531.22;10292907;28;20062;-59
2021/12/06 03:53:44;;;;;;;;;;;;;;;7.11;68.17;96535.53;10293194;28;20085;-59
2021/12/06 03:58:45;;;;;;;11.38;6.82;;;;;;;7.01;67.97;96519.28;10293068;28;19916;-59
2021/12/06 04:03:44;;;;;;;11.23;6.70;;;;;;;7.25;67.68;96538.88;10298927;28;20061;-59
2021/12/06 04:08:43;;;;;;;14.15;7.38;;;;;;;7.32;67.69;96530.22;10299609;28;20068;-59
2021/12/06 04:13:42;;;;;;;12.40;7.25;;;;;;;7.38;67.62;96529.28;10299639;28;20069;-59
2021/12/06 04:18:44;;;;;;;12.50;7.22;;;;;;;7.44;66.55;96535.28;10297304;28;20053;-59
2021/12/06 04:23:43;;;;;;;13.00;7.97;;;;;;;7.51;66.94;96540.41;10299137;28;20072;-59
2021/12/06 04:28:48;;;;;;;13.00;7.32;;;;;;;7.58;66.59;96535.19;10298319;28;20084;-59
2021/12/06 04:33:46;;;;;;;13.65;7.00;;;;;;;7.22;66.17;96461.50;10299084;28;20145;-59
2021/12/06 04:38:45;;;;;;;14.30;8.55;;;;;;;7.52;66.13;96532.66;10297281;28;20109;-59
2021/12/06 04:43:45;;;;;;;10.85;6.90;;;;;;;7.47;66.02;96534.41;10298674;28;20029;-59
2021/12/06 04:48:44;;;;;;;;;;;;;;;7.43;66.11;96537.91;10298877;28;20066;-59
2021/12/06 04:53:43;;;;;;;11.77;6.63;;;;;;;7.39;66.42;96539.63;10298072;28;20295;-59
2021/12/06 04:58:51;;;;;;;23.27;14.85;;;;;;;7.36;66.28;96551.69;10296254;28;20068;-59
2021/12/06 05:03:51;;;;;;;33.63;23.92;;;;;;;7.16;66.74;96557.84;10297566;28;20068;-59
2021/12/06 05:08:53;;;;;;;20.17;13.43;;;;;;;6.92;67.82;96542.53;10294750;28;20077;-60
2021/12/06 05:13:54;;;;;;;23.13;15.63;;;;;;;5.95;68.24;96424.47;10297194;28;20060;-59
2021/12/06 05:18:53;;;;;;;30.33;19.73;;;;;;;5.91;69.15;96470.00;10297016;28;20072;-59
2021/12/06 05:23:53;;;;;;;89.63;56.05;;;;;;;5.95;69.31;96494.88;10296781;28;20069;-59
2021/12/06 05:28:56;;;;;;;42.10;27.88;;;;;;;6.20;69.87;96551.44;10296900;28;20069;-59
2021/12/06 05:34:02;;;;;;;46.72;31.83;;;;;;;6.08;70.01;96569.53;10294917;28;20065;-59
2021/12/06 05:39:01;;;;;;;51.00;35.55;;;;;;;5.89;70.11;96554.09;10296326;28;20068;-59
2021/12/06 05:44:01;;;;;;;31.77;19.33;;;;;;;5.82;71.11;96585.88;10289427;28;20065;-59
2021/12/06 05:49:00;;;;;;;;;;;;;;;5.92;72.13;96579.00;10295376;28;20480;-59
2021/12/06 05:53:59;;;;;;;55.75;37.00;;;;;;;6.09;71.26;96586.69;10295070;28;20338;-59
2021/12/06 05:58:58;;;;;;;55.55;35.67;;;;;;;6.11;71.51;96580.66;10290860;28;20046;-59
2021/12/06 06:04:01;;;;;;;45.35;28.85;;;;;;;6.27;71.70;96576.31;10291508;28;20033;-59
2021/12/06 06:09:00;;;;;;;40.13;25.88;;;;;;;6.38;71.44;96584.03;10300075;28;20062;-59
2021/12/06 06:14:01;;;;;;;87.88;50.70;;;;;;;6.35;70.94;96592.63;10293283;28;20057;-59
2021/12/06 06:19:00;;;;;;;47.10;29.90;;;;;;;6.45;71.31;96590.03;10294325;28;20065;-59
2021/12/06 06:23:59;;;;;;;35.45;21.77;;;;;;;6.29;70.60;96520.50;10255319;28;20046;-59
2021/12/06 06:28:59;;;;;;;18.45;8.98;;;;;;;6.57;70.13;96520.38;10277516;28;20022;-59
2021/12/06 06:33:58;;;;;;;17.15;9.20;;;;;;;7.06;70.08;96565.66;10288951;28;20053;-59
2021/12/06 06:38:57;;;;;;;14.55;8.15;;;;;;;7.23;69.55;96551.78;10291138;28;20061;-59
2021/12/06 06:43:57;;;;;;;13.40;7.90;;;;;;;7.47;68.76;96542.16;10272985;28;20674;-59
2021/12/06 06:48:56;;;;;;;12.10;7.75;;;;;;;7.44;67.84;96493.16;10293509;28;20069;-59
2021/12/06 06:53:56;;;;;;;14.43;10.18;;;;;;;7.78;67.04;96536.72;10294241;28;20060;-59
2021/12/06 06:58:55;;;;;;;29.30;14.82;;;;;;;7.93;66.73;96564.13;10291673;28;20076;-59
2021/12/06 07:03:54;;;;;;;17.10;10.93;;;;;;;7.98;66.56;96555.47;10291182;28;20065;-59
2021/12/06 07:08:56;;;;;;;17.17;11.70;;;;;;;7.79;66.31;96516.03;10289083;28;20570;-59
2021/12/06 07:13:56;;;;;;;24.25;15.18;;;;;;;7.75;66.35;96553.09;10289831;28;20065;-59
2021/12/06 07:18:55;;;;;;;23.45;15.43;;;;;;;7.54;67.69;96554.13;10286540;28;20530;-59
2021/12/06 07:23:55;;;;;;;25.42;16.67;;;;;;;7.37;67.88;96537.91;10287788;28;20072;-59
2021/12/06 07:28:55;;;;;;;;;;;;;;;7.61;67.39;96550.63;10287655;28;20131;-59
2021/12/06 07:33:54;;;;;;;24.30;16.50;;;;;;;7.57;67.58;96559.31;10289838;28;19960;-59
2021/12/06 07:38:53;;;;;;;25.27;15.75;;;;;;;7.68;67.37;96558.34;10280112;28;20089;-59
2021/12/06 07:43:52;;;;;;;24.85;16.23;;;;;;;7.26;67.50;96486.38;10298553;28;20073;-59
2021/12/06 07:48:54;;;;;;;26.42;18.25;;;;;;;7.78;67.25;96541.88;10289711;28;20041;-59
2021/12/06 07:53:55;;;;;;;29.45;19.00;;;;;;;7.86;67.38;96548.69;10295850;28;20081;-59
2021/12/06 07:58:54;;;;;;;19.90;13.07;;;;;;;8.19;67.04;96540.63;10297365;28;20503;-59
2021/12/06 08:03:54;;;;;;;31.05;14.35;;;;;;;8.11;66.44;96477.81;10296919;28;20073;-59
2021/12/06 08:08:53;;;;;;;20.42;11.55;;;;;;;8.75;65.49;96531.31;10294822;28;20065;-59
2021/12/06 08:13:56;;;;;;;14.15;9.25;;;;;;;9.01;65.10;96548.19;10295940;28;20061;-59
2021/12/06 08:18:55;;;;;;;15.93;9.82;;;;;;;8.95;64.48;96497.41;10289945;28;20135;-59
2021/12/06 08:23:56;;;;;;;13.48;9.13;;;;;;;9.69;63.66;96537.66;10292003;28;20073;-59
2021/12/06 08:28:57;;;;;;;14.63;8.23;;;;;;;9.99;62.53;96546.66;10294357;28;20503;-59
2021/12/06 08:33:56;;;;;;;14.40;9.15;;;;;;;9.84;61.57;96475.22;10297637;28;20069;-59
2021/12/06 08:38:57;;;;;;;12.68;8.02;;;;;;;10.50;60.41;96569.88;10294562;28;20069;-59
2021/12/06 08:44:01;;;;;;;13.00;5.95;;;;;;;10.34;58.76;96508.81;10294477;28;20069;-59
2021/12/06 08:49:04;;;;;;;12.15;6.18;;;;;;;10.74;59.24;96546.91;10291936;28;20168;-59
2021/12/06 08:54:06;;;;;;;11.90;6.47;;;;;;;10.58;58.61;96502.28;10290843;28;20082;-59
2021/12/06 08:59:06;;;;;;;10.98;6.18;;;;;;;10.76;57.95;96508.81;10291946;28;20076;-59
2021/12/06 09:04:09;;;;;;;10.25;5.88;;;;;;;11.25;57.61;96520.72;10292263;28;20169;-59
2021/12/06 09:09:09;;;;;;;10.02;6.20;;;;;;;11.45;56.77;96510.72;10293626;28;20472;-59
2021/12/06 09:14:08;;;;;;;14.43;6.25;;;;;;;11.46;56.18;96517.59;10292901;28;20478;-59
2021/12/06 09:19:08;;;;;;;;;;;;;;;11.52;56.51;96526.13;10286614;28;20053;-59
2021/12/06 09:24:13;;;;;;;10.80;5.65;;;;;;;11.73;56.40;96523.00;10291212;28;20369;-59
2021/12/06 09:29:12;;;;;;;9.10;5.88;;;;;;;11.72;56.02;96476.28;10293143;28;20076;-59
2021/12/06 09:34:11;;;;;;;;;;;;;;;12.28;54.71;96497.31;10293228;28;20061;-59
2021/12/06 09:39:14;;;;;;;11.65;5.88;;;;;;;12.38;54.13;96490.09;10291808;28;19960;-59
2021/12/06 09:44:14;;;;;;;10.07;6.75;;;;;;;12.07;54.48;96421.56;10271702;28;20065;-59
2021/12/06 09:49:17;;;;;;;11.95;7.15;;;;;;;12.43;54.28;96472.63;10267221;28;20125;-59
2021/12/06 09:54:16;;;;;;;11.00;6.38;;;;;;;12.42;54.53;96457.91;10251659;28;20132;-59
2021/12/06 09:59:17;;;;;;;;;;;;;;;12.42;53.82;96476.97;10266006;28;20072;-59
2021/12/06 10:04:19;;;;;;;10.68;6.72;;;;;;;12.51;53.80;96463.69;10276305;28;19964;-59
2021/12/06 10:09:20;;;;;;;12.05;5.60;;;;;;;12.57;54.35;96457.44;10263631;28;21927;-59
2021/12/06 10:14:20;;;;;;;13.50;6.45;;;;;;;12.65;53.98;96465.88;10260246;28;20073;-59
2021/12/06 10:19:21;;;;;;;10.18;5.78;;;;;;;12.67;54.06;96447.59;10281568;28;20068;-59
2021/12/06 10:24:24;;;;;;;9.25;5.75;;;;;;;12.65;53.70;96442.47;10278056;28;20066;-59
2021/12/06 10:29:32;;;;;;;10.15;5.80;;;;;;;12.70;53.87;96447.53;10262565;28;20061;-59
2021/12/06 10:34:31;;;;;;;9.93;4.85;;;;;;;12.76;53.59;96420.44;10266873;28;20571;-59
2021/12/06 10:39:35;;;;;;;7.65;5.30;;;;;;;12.80;53.39;96417.72;10277263;28;20064;-59
2021/12/06 10:44:34;;;;;;;13.20;5.82;;;;;;;12.98;53.22;96410.19;10268534;28;20927;-59
2021/12/06 10:49:33;;;;;;;11.43;4.75;;;;;;;12.70;52.61;96353.84;10267945;28;20447;-60
2021/12/06 10:54:36;;;;;;;13.13;5.95;;;;;;;13.03;52.29;96416.13;10268054;28;20072;-59
2021/12/06 10:59:37;;;;;;;9.38;5.07;;;;;;;13.26;51.43;96399.75;10260176;28;20077;-59
2021/12/06 11:04:38;;;;;;;10.30;5.10;;;;;;;13.41;51.93;96388.81;10275171;28;20066;-59
2021/12/06 11:09:40;;;;;;;10.13;5.88;;;;;;;13.19;51.83;96294.03;10283856;28;20070;-59
2021/12/06 11:14:42;;;;;;;14.85;5.40;;;;;;;13.85;50.39;96394.25;10284961;28;20084;-59
2021/12/06 11:19:41;;;;;;;8.82;5.82;;;;;;;14.08;50.24;96397.78;10298593;28;20061;-59
2021/12/06 11:24:43;;;;;;;10.65;6.03;;;;;;;13.74;50.39;96318.19;10279196;28;20081;-59
2021/12/06 11:29:49;;;;;;;11.13;5.82;;;;;;;14.38;50.36;96387.94;10269163;28;20536;-59
2021/12/06 11:34:52;;;;;;;7.97;4.65;;;;;;;14.35;49.67;96395.91;10277061;28;20489;-59
2021/12/06 11:40:14;;;;;;;10.70;5.35;;;;;;;13.67;48.93;96317.53;10263453;28;20061;-59
2021/12/06 11:45:13;;;;;;;9.75;4.78;;;;;;;14.04;49.25;96402.25;10258748;28;20794;-59
2021/12/06 11:50:12;;;;;;;;;;;;;;;13.89;49.21;96401.06;10295731;28;20097;-59
2021/12/06 11:55:12;;;;;;;8.27;5.07;;;;;;;13.66;49.81;96356.72;10296614;28;19951;-60
2021/12/06 12:00:19;;;;;;;11.43;5.32;;;;;;;13.91;49.96;96387.94;10296397;28;20065;-59
2021/12/06 12:05:21;;;;;;;11.93;6.05;;;;;;;13.98;50.17;96381.59;10295633;28;20515;-59
2021/12/06 12:10:56;;;;;;;15.57;7.28;;;;;;;14.11;49.66;96369.81;10294916;28;20100;-59
2021/12/06 12:16:05;;;;;;;10.27;5.28;;;;;;;14.15;49.42;96400.13;10293906;28;20080;-59
2021/12/06 12:21:06;;;;;;;8.20;4.90;;;;;;;14.29;49.28;96394.38;10290023;28;20057;-59
2021/12/06 12:26:18;;;;;;;10.60;5.95;;;;;;;14.37;49.41;96392.31;10295598;28;20073;-59
2021/12/06 12:31:20;;;;;;;9.30;4.88;;;;;;;14.36;49.29;96390.63;10295230;28;20073;-59
2021/12/06 12:36:21;;;;;;;6.80;4.68;;;;;;;14.50;49.02;96381.41;10295180;28;20077;-59
2021/12/06 12:41:22;;;;;;;9.52;4.95;;;;;;;14.39;48.75;96359.19;10293557;28;20072;-59
2021/12/06 12:46:24;;;;;;;9.73;4.63;;;;;;;14.46;48.67;96400.72;10290498;28;20131;-59
2021/12/06 12:51:32;;;;;;;10.98;5.70;;;;;;;14.10;48.71;96343.78;10293914;28;20138;-59
2021/12/06 12:56:39;;;;;;;14.10;5.10;;;;;;;14.30;49.08;96388.25;10294929;28;20480;-59
2021/12/06 13:01:44;;;;;;;8.25;5.18;;;;;;;14.15;48.58;96381.00;10294240;28;20061;-59
2021/12/06 13:06:43;;;;;;;10.15;5.00;;;;;;;14.18;48.75;96381.72;10293958;28;20535;-59
2021/12/06 13:11:46;;;;;;;16.42;8.15;;;;;;;14.17;49.19;96387.88;10294468;28;20496;-59
2021/12/06 13:17:00;;;;;;;13.50;6.53;;;;;;;13.98;49.16;96377.25;10293766;28;20084;-59
2021/12/06 13:22:11;;;;;;;19.92;7.03;;;;;;;13.99;49.89;96397.22;10292982;28;20468;-59
2021/12/06 13:27:25;;;;;;;13.38;6.18;;;;;;;14.02;50.38;96405.84;10293813;28;20073;-59
2021/12/06 13:32:45;;;;;;;10.27;5.35;;;;;;;14.04;50.54;96389.22;10291542;28;20065;-59
2021/12/06 13:38:06;;;;;;;12.80;6.72;;;;;;;14.03;50.34;96407.53;10293199;28;20361;-59
2021/12/06 13:43:28;;;;;;;11.88;6.55;;;;;;;13.90;50.40;96407.97;10292157;28;20070;-59
2021/12/06 13:48:45;;;;;;;11.05;6.70;;;;;;;13.71;50.84;96422.56;10283258;28;20574;-59
2021/12/06 13:53:53;;;;;;;12.25;8.38;;;;;;;12.51;51.52;96431.63;10290516;28;20081;-60
2021/12/06 13:58:53;;;;;;;17.65;12.65;;;;;;;11.18;53.56;96391.94;10266180;28;20074;-60
2021/12/06 14:03:52;;;;;;;14.52;10.05;;;;;;;10.61;55.46;96432.16;10289360;28;20490;-60
2021/12/06 14:08:53;;;;;;;;;;;;;;;10.37;57.21;96455.16;10292178;28;20072;-59
2021/12/06 14:13:53;;;;;;;19.50;13.07;;;;;;;9.87;57.68;96417.31;10289749;28;19968;-59
2021/12/06 14:18:52;;;;;;;22.00;13.80;;;;;;;9.89;58.57;96477.75;10291144;28;20084;-59
2021/12/06 14:23:51;;;;;;;39.95;30.30;;;;;;;9.79;59.27;96492.56;10290900;28;20022;-59
2021/12/06 14:28:50;;;;;;;15.68;11.20;;;;;;;9.49;59.71;96481.91;10290823;28;20029;-59
2021/12/06 14:33:49;;;;;;;22.23;15.63;;;;;;;9.45;60.55;96497.50;10291480;28;20395;-59
2021/12/06 14:38:48;;;;;;;13.35;8.95;;;;;;;9.07;61.60;96501.53;10291078;28;20073;-59
2021/12/06 14:43:47;;;;;;;10.98;7.53;;;;;;;8.37;63.96;96483.53;10290008;28;20069;-59
2021/12/06 14:48:47;;;;;;;16.67;11.45;;;;;;;8.17;65.20;96538.03;10290880;28;20042;-59
2021/12/06 14:58:47;;;;;;;22.88;13.43;;;;;;;7.96;65.88;96508.13;10288771;28;20117;-59
2021/12/06 15:03:54;;;;;;;15.75;9.40;;;;;;;7.34;68.37;96520.72;10290395;28;20072;-59
2021/12/06 15:08:55;;;;;;;16.33;11.25;;;;;;;7.23;67.48;96532.84;10290213;28;20066;-59
2021/12/06 15:13:59;;;;;;;22.85;13.88;;;;;;;7.20;67.84;96526.00;10290005;28;20070;-59
2021/12/06 15:18:58;;;;;;;18.05;11.52;;;;;;;7.25;67.38;96538.88;10287262;28;20076;-59
2021/12/06 15:24:02;;;;;;;28.55;12.70;;;;;;;7.25;68.53;96533.72;10289272;28;20069;-61
2021/12/06 15:29:02;;;;;;;22.30;13.73;;;;;;;7.35;68.65;96534.47;10289384;28;20069;-59
2021/12/06 15:34:02;;;;;;;27.80;17.75;;;;;;;7.19;68.97;96539.78;10289032;28;20065;-59
2021/12/06 15:39:05;;;;;;;;;;;;;;;7.17;68.74;96548.38;10290306;28;20569;-59
2021/12/06 15:44:13;;;;;;;38.15;16.88;;;;;;;6.75;69.34;96497.09;10288275;28;19957;-59
2021/12/06 15:49:13;;;;;;;20.40;11.98;;;;;;;6.81;70.51;96551.19;10289376;28;20589;-59
2021/12/06 15:54:24;;;;;;;14.70;9.52;;;;;;;6.77;70.73;96559.81;10289420;28;20081;-59
2021/12/06 15:59:24;;;;;;;22.65;15.35;;;;;;;6.22;71.86;96559.19;10295070;28;20502;-59
2021/12/06 16:04:23;;;;;;;31.75;22.17;;;;;;;5.76;72.81;96575.56;10296125;28;20058;-59
2021/12/06 16:09:22;;;;;;;16.50;10.13;;;;;;;5.13;75.01;96580.69;10296353;28;20044;-59
2021/12/06 16:14:23;;;;;;;19.55;12.68;;;;;;;4.86;77.03;96612.34;10295314;28;20101;-59
2021/12/06 16:19:25;;;;;;;28.67;17.33;;;;;;;4.56;78.82;96601.09;10295602;28;20073;-59
2021/12/06 16:24:26;;;;;;;16.60;9.98;;;;;;;4.02;80.94;96623.91;10295731;28;20068;-59
2021/12/06 16:29:33;;;;;;;20.80;13.63;;;;;;;3.60;83.89;96647.56;10292896;28;20096;-59
2021/12/06 16:34:37;;;;;;;25.48;15.43;;;;;;;3.35;85.92;96652.44;10295213;28;20076;-59
2021/12/06 16:39:39;;;;;;;21.42;12.15;;;;;;;3.15;87.81;96654.84;10295728;28;20069;-60
2021/12/06 16:44:44;;;;;;;23.30;14.63;;;;;;;3.20;86.82;96650.59;10294446;28;20072;-62
2021/12/06 16:49:48;;;;;;;26.10;15.70;;;;;;;2.80;88.30;96592.97;10290180;28;20065;-62
2021/12/06 16:54:55;;;;;;;26.85;16.50;;;;;;;2.37;88.47;96524.22;10294575;28;20065;-63
2021/12/06 16:59:55;;;;;;;27.67;16.98;;;;;;;3.23;89.04;96654.91;10294385;28;20072;-63
2021/12/06 17:04:57;;;;;;;38.85;23.05;;;;;;;3.46;88.61;96662.81;10294293;28;20064;-63
2021/12/06 17:09:59;;;;;;;23.17;13.32;;;;;;;3.67;88.57;96648.47;10293615;28;20065;-63
2021/12/06 17:15:21;;;;;;;29.85;15.82;;;;;;;3.41;88.68;96596.09;10292551;28;20565;-63
2021/12/06 17:20:43;;;;;;;31.85;18.38;;;;;;;3.89;89.41;96650.34;10289252;28;20068;-63
2021/12/06 17:25:50;;;;;;;34.05;18.30;;;;;;;3.93;89.45;96666.63;10292907;28;20072;-63
2021/12/06 17:30:59;;;;;;;35.03;18.30;;;;;;;3.78;89.13;96632.31;10291844;28;20759;-62
2021/12/06 17:36:03;;;;;;;33.95;17.70;;;;;;;3.67;89.12;96599.72;10293486;28;20068;-62
2021/12/06 17:41:03;;;;;;;60.38;34.75;;;;;;;3.42;89.82;96617.47;10292428;28;20062;-62
2021/12/06 17:46:03;;;;;;;33.80;18.65;;;;;;;3.57;90.20;96633.00;10292606;28;20061;-62
2021/12/06 17:51:03;;;;;;;105.05;40.25;;;;;;;3.73;90.17;96669.91;10293002;28;20165;-62
2021/12/06 17:56:03;;;;;;;41.67;22.58;;;;;;;3.16;90.63;96566.81;10292139;28;20069;-62
2021/12/06 18:01:06;;;;;;;30.13;18.77;;;;;;;3.68;91.35;96671.56;10291826;28;20108;-62
2021/12/06 18:06:06;;;;;;;58.72;39.35;;;;;;;3.60;91.42;96658.66;10291480;28;20073;-62
2021/12/06 18:11:05;;;;;;;37.15;22.80;;;;;;;3.44;91.45;96679.91;10291842;28;20541;-62
2021/12/06 18:16:05;;;;;;;34.08;22.60;;;;;;;3.37;91.68;96629.41;10290858;28;20582;-62
2021/12/06 18:21:04;;;;;;;;;;;;;;;3.49;91.58;96674.81;10290666;28;20054;-62
2021/12/06 18:26:04;;;;;;;35.10;23.43;;;;;;;3.38;91.39;96652.50;10287631;28;19968;-62
2021/12/06 18:31:05;;;;;;;39.63;24.20;;;;;;;3.40;92.27;96655.94;10290920;28;20063;-62
2021/12/06 18:36:05;;;;;;;23.70;15.60;;;;;;;2.93;92.29;96582.00;10290594;28;20088;-62
2021/12/06 18:41:06;;;;;;;26.77;15.85;;;;;;;2.87;92.45;96597.31;10290485;28;20049;-62
2021/12/06 18:46:06;;;;;;;32.38;22.30;;;;;;;3.42;92.14;96676.44;10288985;28;20123;-62
2021/12/06 18:51:07;;;;;;;18.23;11.25;;;;;;;3.30;92.32;96682.31;10289985;28;20077;-62
2021/12/06 18:56:07;;;;;;;18.17;12.65;;;;;;;3.14;91.78;96683.00;10284716;28;20057;-62
2021/12/06 19:01:10;;;;;;;20.13;13.93;;;;;;;2.80;92.18;96652.75;10285940;28;20049;-62
2021/12/06 19:06:09;;;;;;;13.70;9.85;;;;;;;2.88;92.89;96672.47;10289259;28;20077;-62
2021/12/06 19:11:08;;;;;;;;;;;;;;;2.75;92.70;96679.16;10290274;28;20062;-62
2021/12/06 19:16:09;;;;;;;20.55;13.88;;;;;;;2.81;92.43;96685.19;10289833;28;20605;-61
2021/12/06 19:21:10;;;;;;;14.25;9.45;;;;;;;2.42;92.60;96636.91;10290466;28;20502;-61
2021/12/06 19:26:10;;;;;;;9.73;6.22;;;;;;;1.68;92.81;96535.28;10285522;28;20073;-61
2021/12/06 19:31:10;;;;;;;16.50;11.88;;;;;;;2.09;92.84;96609.16;10290420;28;20502;-61
2021/12/06 19:36:10;;;;;;;10.77;6.53;;;;;;;2.07;92.62;96611.72;10296666;28;20128;-61
2021/12/06 19:41:10;;;;;;;29.42;17.42;;;;;;;2.08;92.67;96625.34;10296704;28;20104;-61
2021/12/06 19:46:10;;;;;;;40.22;27.25;;;;;;;2.41;92.95;96663.34;10297264;28;20087;-61
2021/12/06 19:51:11;;;;;;;30.88;18.23;;;;;;;2.39;93.30;96667.59;10295992;28;20128;-61
2021/12/06 19:56:10;;;;;;;32.92;20.00;;;;;;;2.40;93.08;96666.75;10291490;28;20064;-61
2021/12/06 20:01:09;;;;;;;19.02;12.93;;;;;;;2.50;92.94;96660.06;10296269;28;20064;-61
2021/12/06 20:06:09;;;;;;;;;;;;;;;2.73;92.94;96652.66;10294985;28;20070;-61
2021/12/06 20:11:10;;;;;;;10.90;6.57;;;;;;;2.55;92.34;96625.13;10295917;28;19965;-61
2021/12/06 20:16:12;;;;;;;11.23;6.60;;;;;;;2.70;92.30;96675.66;10295900;28;20069;-61
2021/12/06 20:21:13;;;;;;;69.40;36.58;;;;;;;2.46;92.65;96620.72;10296199;28;20061;-61
2021/12/06 20:26:19;;;;;;;20.25;12.55;;;;;;;2.72;92.38;96663.72;10290672;28;20065;-61
2021/12/06 20:31:19;;;;;;;15.35;9.15;;;;;;;2.71;92.07;96674.84;10295114;28;20069;-61
2021/12/06 20:36:19;;;;;;;15.07;8.25;;;;;;;2.87;92.62;96663.94;10295663;28;20506;-61
2021/12/06 20:41:18;;;;;;;13.82;8.13;;;;;;;3.08;92.82;96667.59;10294506;28;20486;-61
2021/12/06 20:46:17;;;;;;;13.57;8.05;;;;;;;3.17;92.25;96634.34;10294575;28;20065;-61
2021/12/06 20:51:17;;;;;;;18.63;10.32;;;;;;;3.32;92.41;96651.59;10295127;28;20048;-61
2021/12/06 20:56:16;;;;;;;18.52;11.32;;;;;;;3.41;92.55;96646.53;10289549;28;20530;-60
2021/12/06 21:01:15;;;;;;;20.58;12.57;;;;;;;3.30;92.74;96643.88;10294927;28;20018;-61
2021/12/06 21:06:15;;;;;;;24.08;13.90;;;;;;;3.55;92.55;96674.88;10291364;28;20030;-60
2021/12/06 21:16:25;;;;;;;23.85;15.57;;;;;;;3.36;92.53;96632.81;10294534;28;20062;-61
2021/12/06 21:21:25;;;;;;;23.08;15.15;;;;;;;3.68;92.03;96686.09;10293505;28;20647;-61
2021/12/06 21:26:25;;;;;;;23.25;15.38;;;;;;;3.63;91.96;96688.63;10288382;28;20065;-60
2021/12/06 21:31:24;;;;;;;23.00;15.18;;;;;;;3.67;92.37;96684.38;10293145;28;20589;-60
2021/12/06 21:36:23;;;;;;;34.60;21.88;;;;;;;3.70;92.41;96675.00;10292920;28;20069;-60
2021/12/06 21:41:23;;;;;;;;;;;;;;;3.68;92.21;96673.25;10293478;28;20074;-60
2021/12/06 21:46:22;;;;;;;21.85;14.93;;;;;;;3.57;92.42;96662.94;10292592;28;20028;-60
2021/12/06 21:51:21;;;;;;;28.10;18.40;;;;;;;3.71;92.09;96684.44;10292382;28;20477;-60
2021/12/06 21:56:20;;;;;;;;;;;;;;;3.72;92.63;96678.44;10286323;28;20072;-60
2021/12/06 22:01:19;;;;;;;22.95;14.73;;;;;;;3.24;92.76;96582.28;10292536;28;19913;-60
2021/12/06 22:06:19;;;;;;;21.20;13.32;;;;;;;3.39;92.62;96613.19;10291724;28;20061;-61
2021/12/06 22:11:19;;;;;;;21.52;15.00;;;;;;;3.11;92.74;96531.75;10291594;28;20529;-60
2021/12/06 22:16:18;;;;;;;13.30;8.30;;;;;;;3.76;92.75;96651.13;10292406;28;20487;-61
2021/12/06 22:21:17;;;;;;;15.35;9.77;;;;;;;3.79;92.51;96651.97;10289784;28;20096;-60
2021/12/06 22:26:16;;;;;;;14.98;8.38;;;;;;;3.50;92.38;96597.91;10291165;28;20058;-61
2021/12/06 22:31:15;;;;;;;13.75;7.60;;;;;;;3.77;92.47;96652.81;10291780;28;20833;-60
2021/12/06 22:36:15;;;;;;;12.00;7.57;;;;;;;3.76;92.40;96649.41;10290449;28;20025;-61
2021/12/06 22:41:14;;;;;;;;;;;;;;;3.75;92.84;96640.00;10291572;28;20193;-61
2021/12/06 22:46:12;;;;;;;27.73;17.80;;;;;;;3.72;92.87;96629.69;10291087;28;20036;-60
2021/12/06 22:51:12;;;;;;;28.33;18.63;;;;;;;3.76;92.89;96639.13;10290361;28;20049;-61
2021/12/06 22:56:11;;;;;;;26.02;15.45;;;;;;;3.82;92.75;96622.91;10290286;28;20518;-61
2021/12/06 23:01:28;;;;;;;18.83;12.18;;;;;;;3.86;92.64;96620.38;10288956;28;20562;-61
2021/12/06 23:06:28;;;;;;;19.58;12.30;;;;;;;3.89;92.40;96613.56;10297012;28;20065;-61
2021/12/06 23:11:28;;;;;;;18.52;12.23;;;;;;;3.50;92.65;96543.19;10300370;28;20066;-60
2021/12/06 23:16:27;;;;;;;;;;;;;;;3.81;92.70;96605.81;10301254;28;20088;-61
2021/12/06 23:21:26;;;;;;;19.70;12.88;;;;;;;3.40;92.64;96555.06;10301818;28;20290;-60
2021/12/06 23:26:25;;;;;;;14.48;8.07;;;;;;;3.30;92.63;96561.81;10304099;28;20076;-60
2021/12/06 23:31:25;;;;;;;12.15;7.55;;;;;;;3.16;92.78;96576.22;10304219;28;20072;-60
2021/12/06 23:36:29;;;;;;;10.48;6.47;;;;;;;3.25;92.52;96599.38;10303495;28;20079;-60
2021/12/06 23:41:38;;;;;;;8.95;5.00;;;;;;;3.20;92.57;96590.78;10301949;28;20076;-60